sensor_id;sensor_type;location;lat;lon;timestamp;P1;durP1;ratioP1;P2;durP2;ratioP2
7432;SDS011;32233;49.500;7.764;2023-02-23T00:01:26;35.87;;;22.23;;
7432;SDS011;32233;49.500;7.764;2023-02-23T00:03:55;35.87;;;22.77;;
7432;SDS011;32233;49.500;7.764;2023-02-23T00:06:23;36.90;;;22.90;;
7432;SDS011;32233;49.500;7.764;2023-02-23T00:08:52;41.33;;;23.53;;
7432;SDS011;32233;49.500;7.764;2023-02-23T00:11:19;40.70;;;23.50;;
7432;SDS011;32233;49.500;7.764;2023-02-23T00:13:47;36.43;;;22.70;;
7432;SDS011;32233;49.500;7.764;2023-02-23T00:16:18;36.57;;;22.67;;
7432;SDS011;32233;49.500;7.764;2023-02-23T00:18:48;37.47;;;23.60;;
7432;SDS011;32233;49.500;7.764;2023-02-23T00:23:54;38.70;;;24.07;;
7432;SDS011;32233;49.500;7.764;2023-02-23T00:26:26;38.43;;;23.40;;
7432;SDS011;32233;49.500;7.764;2023-02-23T00:28:56;36.47;;;21.80;;
7432;SDS011;32233;49.500;7.764;2023-02-23T00:31:24;33.73;;;21.63;;
7432;SDS011;32233;49.500;7.764;2023-02-23T00:33:52;33.30;;;21.20;;
7432;SDS011;32233;49.500;7.764;2023-02-23T00:36:21;35.87;;;21.50;;
7432;SDS011;32233;49.500;7.764;2023-02-23T00:38:53;32.47;;;21.30;;
7432;SDS011;32233;49.500;7.764;2023-02-23T00:41:22;34.07;;;21.40;;
7432;SDS011;32233;49.500;7.764;2023-02-23T00:43:57;34.93;;;21.60;;
7432;SDS011;32233;49.500;7.764;2023-02-23T00:46:27;38.13;;;21.40;;
7432;SDS011;32233;49.500;7.764;2023-02-23T00:48:56;33.47;;;21.17;;
7432;SDS011;32233;49.500;7.764;2023-02-23T00:51:24;32.10;;;20.70;;
7432;SDS011;32233;49.500;7.764;2023-02-23T00:53:56;32.77;;;19.73;;
7432;SDS011;32233;49.500;7.764;2023-02-23T00:56:24;33.77;;;20.27;;
7432;SDS011;32233;49.500;7.764;2023-02-23T00:58:51;31.97;;;19.70;;
7432;SDS011;32233;49.500;7.764;2023-02-23T01:01:18;30.67;;;18.67;;
7432;SDS011;32233;49.500;7.764;2023-02-23T01:03:45;31.80;;;18.80;;
7432;SDS011;32233;49.500;7.764;2023-02-23T01:06:13;30.20;;;19.10;;
7432;SDS011;32233;49.500;7.764;2023-02-23T01:08:42;30.50;;;18.63;;
7432;SDS011;32233;49.500;7.764;2023-02-23T01:11:11;27.20;;;18.43;;
7432;SDS011;32233;49.500;7.764;2023-02-23T01:13:40;30.50;;;19.53;;
7432;SDS011;32233;49.500;7.764;2023-02-23T01:16:13;30.77;;;19.13;;
7432;SDS011;32233;49.500;7.764;2023-02-23T01:18:41;28.73;;;19.43;;
7432;SDS011;32233;49.500;7.764;2023-02-23T01:21:13;29.47;;;19.43;;
7432;SDS011;32233;49.500;7.764;2023-02-23T01:23:42;31.43;;;18.87;;
7432;SDS011;32233;49.500;7.764;2023-02-23T01:26:16;30.50;;;19.20;;
7432;SDS011;32233;49.500;7.764;2023-02-23T01:28:50;31.80;;;19.53;;
7432;SDS011;32233;49.500;7.764;2023-02-23T01:31:19;32.23;;;20.60;;
7432;SDS011;32233;49.500;7.764;2023-02-23T01:33:47;33.87;;;19.97;;
7432;SDS011;32233;49.500;7.764;2023-02-23T01:36:19;34.67;;;21.00;;
7432;SDS011;32233;49.500;7.764;2023-02-23T01:38:46;35.23;;;22.23;;
7432;SDS011;32233;49.500;7.764;2023-02-23T01:41:14;31.43;;;20.07;;
7432;SDS011;32233;49.500;7.764;2023-02-23T01:43:55;32.97;;;19.63;;
7432;SDS011;32233;49.500;7.764;2023-02-23T01:46:35;30.97;;;19.57;;
7432;SDS011;32233;49.500;7.764;2023-02-23T01:49:11;31.90;;;19.73;;
7432;SDS011;32233;49.500;7.764;2023-02-23T01:51:45;32.43;;;20.10;;
7432;SDS011;32233;49.500;7.764;2023-02-23T01:54:20;34.27;;;19.57;;
7432;SDS011;32233;49.500;7.764;2023-02-23T01:56:54;28.93;;;18.47;;
7432;SDS011;32233;49.500;7.764;2023-02-23T01:59:25;32.80;;;19.03;;
7432;SDS011;32233;49.500;7.764;2023-02-23T02:01:56;31.97;;;19.30;;
7432;SDS011;32233;49.500;7.764;2023-02-23T02:04:22;29.10;;;18.43;;
7432;SDS011;32233;49.500;7.764;2023-02-23T02:06:51;28.73;;;18.33;;
7432;SDS011;32233;49.500;7.764;2023-02-23T02:09:19;35.73;;;19.17;;
7432;SDS011;32233;49.500;7.764;2023-02-23T02:11:50;25.27;;;16.90;;
7432;SDS011;32233;49.500;7.764;2023-02-23T02:14:23;27.20;;;17.57;;
7432;SDS011;32233;49.500;7.764;2023-02-23T02:22:24;27.90;;;18.03;;
7432;SDS011;32233;49.500;7.764;2023-02-23T02:25:29;28.63;;;17.83;;
7432;SDS011;32233;49.500;7.764;2023-02-23T02:45:29;26.60;;;17.90;;
7432;SDS011;32233;49.500;7.764;2023-02-23T02:48:15;27.17;;;17.20;;
7432;SDS011;32233;49.500;7.764;2023-02-23T02:53:23;25.57;;;16.27;;
7432;SDS011;32233;49.500;7.764;2023-02-23T02:55:54;28.53;;;17.47;;
7432;SDS011;32233;49.500;7.764;2023-02-23T02:58:25;27.03;;;15.87;;
7432;SDS011;32233;49.500;7.764;2023-02-23T03:00:53;25.00;;;15.67;;
7432;SDS011;32233;49.500;7.764;2023-02-23T03:03:39;27.03;;;16.80;;
7432;SDS011;32233;49.500;7.764;2023-02-23T03:06:28;26.37;;;16.23;;
7432;SDS011;32233;49.500;7.764;2023-02-23T03:12:31;26.90;;;16.77;;
7432;SDS011;32233;49.500;7.764;2023-02-23T03:15:45;24.53;;;15.50;;
7432;SDS011;32233;49.500;7.764;2023-02-23T03:21:44;26.10;;;16.67;;
7432;SDS011;32233;49.500;7.764;2023-02-23T03:24:59;28.40;;;17.33;;
7432;SDS011;32233;49.500;7.764;2023-02-23T03:31:06;26.43;;;16.67;;
7432;SDS011;32233;49.500;7.764;2023-02-23T03:37:10;25.03;;;15.73;;
7432;SDS011;32233;49.500;7.764;2023-02-23T03:40:06;26.00;;;15.73;;
7432;SDS011;32233;49.500;7.764;2023-02-23T03:42:58;26.17;;;16.50;;
7432;SDS011;32233;49.500;7.764;2023-02-23T03:45:47;28.00;;;16.80;;
7432;SDS011;32233;49.500;7.764;2023-02-23T03:48:34;28.63;;;17.27;;
7432;SDS011;32233;49.500;7.764;2023-02-23T03:51:21;25.33;;;16.93;;
7432;SDS011;32233;49.500;7.764;2023-02-23T03:54:12;26.47;;;15.63;;
7432;SDS011;32233;49.500;7.764;2023-02-23T03:57:01;22.73;;;15.10;;
7432;SDS011;32233;49.500;7.764;2023-02-23T03:59:57;23.60;;;15.60;;
7432;SDS011;32233;49.500;7.764;2023-02-23T04:02:47;25.37;;;16.80;;
7432;SDS011;32233;49.500;7.764;2023-02-23T04:05:37;26.10;;;16.67;;
7432;SDS011;32233;49.500;7.764;2023-02-23T04:08:27;27.37;;;17.90;;
7432;SDS011;32233;49.500;7.764;2023-02-23T04:11:18;28.03;;;17.57;;
7432;SDS011;32233;49.500;7.764;2023-02-23T04:14:13;29.77;;;19.13;;
7432;SDS011;32233;49.500;7.764;2023-02-23T04:16:44;30.57;;;19.63;;
7432;SDS011;32233;49.500;7.764;2023-02-23T04:19:11;29.30;;;18.33;;
7432;SDS011;32233;49.500;7.764;2023-02-23T04:21:38;30.10;;;18.50;;
7432;SDS011;32233;49.500;7.764;2023-02-23T04:24:04;25.80;;;17.10;;
7432;SDS011;32233;49.500;7.764;2023-02-23T04:26:31;26.67;;;16.47;;
7432;SDS011;32233;49.500;7.764;2023-02-23T04:28:57;26.83;;;16.47;;
7432;SDS011;32233;49.500;7.764;2023-02-23T04:31:23;25.63;;;15.83;;
7432;SDS011;32233;49.500;7.764;2023-02-23T04:33:51;22.93;;;15.93;;
7432;SDS011;32233;49.500;7.764;2023-02-23T04:36:18;24.93;;;15.30;;
7432;SDS011;32233;49.500;7.764;2023-02-23T04:38:44;28.77;;;17.30;;
7432;SDS011;32233;49.500;7.764;2023-02-23T04:41:11;28.17;;;16.53;;
7432;SDS011;32233;49.500;7.764;2023-02-23T04:43:37;25.83;;;15.83;;
7432;SDS011;32233;49.500;7.764;2023-02-23T04:46:04;26.00;;;15.47;;
7432;SDS011;32233;49.500;7.764;2023-02-23T04:48:30;25.03;;;16.37;;
7432;SDS011;32233;49.500;7.764;2023-02-23T04:50:57;25.10;;;16.43;;
7432;SDS011;32233;49.500;7.764;2023-02-23T04:53:24;27.00;;;17.37;;
7432;SDS011;32233;49.500;7.764;2023-02-23T04:55:52;27.50;;;17.20;;
7432;SDS011;32233;49.500;7.764;2023-02-23T04:58:18;26.90;;;17.10;;
7432;SDS011;32233;49.500;7.764;2023-02-23T05:00:45;30.17;;;18.90;;
7432;SDS011;32233;49.500;7.764;2023-02-23T05:03:11;33.47;;;19.73;;
7432;SDS011;32233;49.500;7.764;2023-02-23T05:05:38;33.20;;;19.73;;
7432;SDS011;32233;49.500;7.764;2023-02-23T05:08:04;35.53;;;20.30;;
7432;SDS011;32233;49.500;7.764;2023-02-23T05:10:31;38.07;;;21.20;;
7432;SDS011;32233;49.500;7.764;2023-02-23T05:12:57;33.53;;;19.77;;
7432;SDS011;32233;49.500;7.764;2023-02-23T05:15:24;37.10;;;20.50;;
7432;SDS011;32233;49.500;7.764;2023-02-23T05:17:50;38.10;;;22.60;;
7432;SDS011;32233;49.500;7.764;2023-02-23T05:20:17;36.13;;;21.10;;
7432;SDS011;32233;49.500;7.764;2023-02-23T05:22:43;36.70;;;22.37;;
7432;SDS011;32233;49.500;7.764;2023-02-23T05:25:10;36.97;;;21.90;;
7432;SDS011;32233;49.500;7.764;2023-02-23T05:27:37;40.93;;;23.33;;
7432;SDS011;32233;49.500;7.764;2023-02-23T05:30:05;42.57;;;23.03;;
7432;SDS011;32233;49.500;7.764;2023-02-23T05:32:33;40.30;;;23.33;;
7432;SDS011;32233;49.500;7.764;2023-02-23T05:35:00;41.17;;;24.17;;
7432;SDS011;32233;49.500;7.764;2023-02-23T05:37:27;42.03;;;24.57;;
7432;SDS011;32233;49.500;7.764;2023-02-23T05:39:54;48.07;;;25.37;;
7432;SDS011;32233;49.500;7.764;2023-02-23T05:42:20;43.80;;;23.93;;
7432;SDS011;32233;49.500;7.764;2023-02-23T05:44:47;43.10;;;24.53;;
7432;SDS011;32233;49.500;7.764;2023-02-23T05:47:13;44.33;;;23.87;;
7432;SDS011;32233;49.500;7.764;2023-02-23T05:49:40;46.10;;;24.47;;
7432;SDS011;32233;49.500;7.764;2023-02-23T05:52:06;44.50;;;24.40;;
7432;SDS011;32233;49.500;7.764;2023-02-23T05:54:33;40.97;;;23.77;;
7432;SDS011;32233;49.500;7.764;2023-02-23T05:57:00;45.70;;;25.90;;
7432;SDS011;32233;49.500;7.764;2023-02-23T05:59:27;44.70;;;23.73;;
7432;SDS011;32233;49.500;7.764;2023-02-23T06:01:54;44.80;;;23.90;;
7432;SDS011;32233;49.500;7.764;2023-02-23T06:04:20;46.33;;;24.67;;
7432;SDS011;32233;49.500;7.764;2023-02-23T06:06:48;46.67;;;25.83;;
7432;SDS011;32233;49.500;7.764;2023-02-23T06:09:15;54.70;;;25.63;;
7432;SDS011;32233;49.500;7.764;2023-02-23T06:11:41;50.70;;;24.63;;
7432;SDS011;32233;49.500;7.764;2023-02-23T06:14:08;49.23;;;25.87;;
7432;SDS011;32233;49.500;7.764;2023-02-23T06:16:34;46.70;;;25.97;;
7432;SDS011;32233;49.500;7.764;2023-02-23T06:19:01;46.57;;;25.80;;
7432;SDS011;32233;49.500;7.764;2023-02-23T06:21:27;47.73;;;25.93;;
7432;SDS011;32233;49.500;7.764;2023-02-23T06:23:54;46.43;;;25.37;;
7432;SDS011;32233;49.500;7.764;2023-02-23T06:26:21;46.17;;;25.00;;
7432;SDS011;32233;49.500;7.764;2023-02-23T06:28:47;50.37;;;25.83;;
7432;SDS011;32233;49.500;7.764;2023-02-23T06:31:14;46.57;;;24.93;;
7432;SDS011;32233;49.500;7.764;2023-02-23T06:33:40;46.13;;;24.67;;
7432;SDS011;32233;49.500;7.764;2023-02-23T06:36:07;44.63;;;24.50;;
7432;SDS011;32233;49.500;7.764;2023-02-23T06:38:33;46.23;;;24.40;;
7432;SDS011;32233;49.500;7.764;2023-02-23T06:41:05;43.87;;;24.10;;
7432;SDS011;32233;49.500;7.764;2023-02-23T06:43:32;41.23;;;23.93;;
7432;SDS011;32233;49.500;7.764;2023-02-23T06:45:58;43.50;;;23.97;;
7432;SDS011;32233;49.500;7.764;2023-02-23T06:48:25;48.10;;;25.00;;
7432;SDS011;32233;49.500;7.764;2023-02-23T06:50:52;45.00;;;24.03;;
7432;SDS011;32233;49.500;7.764;2023-02-23T06:53:18;46.37;;;24.80;;
7432;SDS011;32233;49.500;7.764;2023-02-23T06:55:45;46.50;;;25.20;;
7432;SDS011;32233;49.500;7.764;2023-02-23T06:58:11;48.33;;;25.77;;
7432;SDS011;32233;49.500;7.764;2023-02-23T07:00:38;47.97;;;26.30;;
7432;SDS011;32233;49.500;7.764;2023-02-23T07:03:08;45.77;;;24.47;;
7432;SDS011;32233;49.500;7.764;2023-02-23T07:05:36;45.83;;;24.70;;
7432;SDS011;32233;49.500;7.764;2023-02-23T07:08:03;42.97;;;23.53;;
7432;SDS011;32233;49.500;7.764;2023-02-23T07:10:29;47.50;;;24.87;;
7432;SDS011;32233;49.500;7.764;2023-02-23T07:12:56;45.03;;;24.20;;
7432;SDS011;32233;49.500;7.764;2023-02-23T07:15:24;44.07;;;23.37;;
7432;SDS011;32233;49.500;7.764;2023-02-23T07:17:51;48.03;;;25.33;;
7432;SDS011;32233;49.500;7.764;2023-02-23T07:20:18;45.47;;;24.50;;
7432;SDS011;32233;49.500;7.764;2023-02-23T07:22:44;40.47;;;24.20;;
7432;SDS011;32233;49.500;7.764;2023-02-23T07:25:11;47.73;;;24.87;;
7432;SDS011;32233;49.500;7.764;2023-02-23T07:27:38;45.43;;;24.77;;
7432;SDS011;32233;49.500;7.764;2023-02-23T07:30:07;40.90;;;22.97;;
7432;SDS011;32233;49.500;7.764;2023-02-23T07:32:34;42.60;;;24.20;;
7432;SDS011;32233;49.500;7.764;2023-02-23T07:35:01;43.60;;;23.83;;
7432;SDS011;32233;49.500;7.764;2023-02-23T07:37:29;42.53;;;23.43;;
7432;SDS011;32233;49.500;7.764;2023-02-23T07:39:55;43.50;;;23.77;;
7432;SDS011;32233;49.500;7.764;2023-02-23T07:42:22;41.27;;;23.83;;
7432;SDS011;32233;49.500;7.764;2023-02-23T07:44:48;37.70;;;21.53;;
7432;SDS011;32233;49.500;7.764;2023-02-23T07:47:15;34.37;;;20.50;;
7432;SDS011;32233;49.500;7.764;2023-02-23T07:49:41;36.27;;;20.87;;
7432;SDS011;32233;49.500;7.764;2023-02-23T07:52:08;35.70;;;20.30;;
7432;SDS011;32233;49.500;7.764;2023-02-23T07:54:35;32.17;;;18.73;;
7432;SDS011;32233;49.500;7.764;2023-02-23T07:57:01;33.10;;;19.27;;
7432;SDS011;32233;49.500;7.764;2023-02-23T07:59:28;33.53;;;20.00;;
7432;SDS011;32233;49.500;7.764;2023-02-23T08:01:54;40.67;;;22.13;;
7432;SDS011;32233;49.500;7.764;2023-02-23T08:04:21;34.73;;;20.63;;
7432;SDS011;32233;49.500;7.764;2023-02-23T08:06:47;32.37;;;19.63;;
7432;SDS011;32233;49.500;7.764;2023-02-23T08:09:14;37.97;;;21.23;;
7432;SDS011;32233;49.500;7.764;2023-02-23T08:11:40;33.73;;;20.50;;
7432;SDS011;32233;49.500;7.764;2023-02-23T08:14:07;35.10;;;20.57;;
7432;SDS011;32233;49.500;7.764;2023-02-23T08:16:35;36.77;;;21.67;;
7432;SDS011;32233;49.500;7.764;2023-02-23T08:19:02;39.53;;;22.13;;
7432;SDS011;32233;49.500;7.764;2023-02-23T08:21:28;39.97;;;22.60;;
7432;SDS011;32233;49.500;7.764;2023-02-23T08:23:56;41.67;;;22.30;;
7432;SDS011;32233;49.500;7.764;2023-02-23T08:26:24;42.53;;;23.00;;
7432;SDS011;32233;49.500;7.764;2023-02-23T08:28:52;39.73;;;23.30;;
7432;SDS011;32233;49.500;7.764;2023-02-23T08:31:19;37.60;;;21.30;;
7432;SDS011;32233;49.500;7.764;2023-02-23T08:33:50;39.63;;;22.57;;
7432;SDS011;32233;49.500;7.764;2023-02-23T08:36:16;38.37;;;21.47;;
7432;SDS011;32233;49.500;7.764;2023-02-23T08:38:43;38.23;;;21.17;;
7432;SDS011;32233;49.500;7.764;2023-02-23T08:41:10;35.63;;;19.70;;
7432;SDS011;32233;49.500;7.764;2023-02-23T08:43:36;33.33;;;18.60;;
7432;SDS011;32233;49.500;7.764;2023-02-23T08:46:04;34.20;;;19.80;;
7432;SDS011;32233;49.500;7.764;2023-02-23T08:48:32;36.80;;;20.00;;
7432;SDS011;32233;49.500;7.764;2023-02-23T08:50:59;35.50;;;19.33;;
7432;SDS011;32233;49.500;7.764;2023-02-23T08:53:26;38.23;;;20.60;;
7432;SDS011;32233;49.500;7.764;2023-02-23T08:55:58;40.13;;;21.67;;
7432;SDS011;32233;49.500;7.764;2023-02-23T08:58:26;41.40;;;22.87;;
7432;SDS011;32233;49.500;7.764;2023-02-23T09:00:54;39.17;;;19.97;;
7432;SDS011;32233;49.500;7.764;2023-02-23T09:03:20;35.10;;;20.00;;
7432;SDS011;32233;49.500;7.764;2023-02-23T09:05:48;34.40;;;18.77;;
7432;SDS011;32233;49.500;7.764;2023-02-23T09:08:15;35.47;;;19.50;;
7432;SDS011;32233;49.500;7.764;2023-02-23T09:10:41;32.60;;;18.73;;
7432;SDS011;32233;49.500;7.764;2023-02-23T09:13:11;35.40;;;18.93;;
7432;SDS011;32233;49.500;7.764;2023-02-23T09:15:38;34.37;;;19.37;;
7432;SDS011;32233;49.500;7.764;2023-02-23T09:18:06;33.00;;;17.97;;
7432;SDS011;32233;49.500;7.764;2023-02-23T09:20:33;32.53;;;18.40;;
7432;SDS011;32233;49.500;7.764;2023-02-23T09:23:00;36.30;;;19.50;;
7432;SDS011;32233;49.500;7.764;2023-02-23T09:25:27;33.27;;;19.53;;
7432;SDS011;32233;49.500;7.764;2023-02-23T09:27:54;35.17;;;19.37;;
7432;SDS011;32233;49.500;7.764;2023-02-23T09:30:25;33.53;;;19.23;;
7432;SDS011;32233;49.500;7.764;2023-02-23T09:32:53;36.70;;;20.83;;
7432;SDS011;32233;49.500;7.764;2023-02-23T09:35:21;41.40;;;23.27;;
7432;SDS011;32233;49.500;7.764;2023-02-23T09:37:50;40.30;;;23.00;;
7432;SDS011;32233;49.500;7.764;2023-02-23T09:40:20;38.80;;;20.90;;
7432;SDS011;32233;49.500;7.764;2023-02-23T09:42:59;34.47;;;19.67;;
7432;SDS011;32233;49.500;7.764;2023-02-23T09:45:38;38.00;;;19.53;;
7432;SDS011;32233;49.500;7.764;2023-02-23T09:48:15;33.30;;;18.70;;
7432;SDS011;32233;49.500;7.764;2023-02-23T09:50:51;31.03;;;17.77;;
7432;SDS011;32233;49.500;7.764;2023-02-23T09:56:23;34.97;;;19.00;;
7432;SDS011;32233;49.500;7.764;2023-02-23T09:59:01;37.73;;;19.90;;
7432;SDS011;32233;49.500;7.764;2023-02-23T10:04:19;32.23;;;19.37;;
7432;SDS011;32233;49.500;7.764;2023-02-23T10:07:11;34.27;;;18.63;;
7432;SDS011;32233;49.500;7.764;2023-02-23T10:12:40;26.37;;;15.60;;
7432;SDS011;32233;49.500;7.764;2023-02-23T10:20:42;27.33;;;16.93;;
7432;SDS011;32233;49.500;7.764;2023-02-23T10:23:17;34.50;;;19.13;;
7432;SDS011;32233;49.500;7.764;2023-02-23T10:25:51;26.93;;;16.77;;
7432;SDS011;32233;49.500;7.764;2023-02-23T10:28:22;27.33;;;17.47;;
7432;SDS011;32233;49.500;7.764;2023-02-23T10:30:49;27.50;;;15.73;;
7432;SDS011;32233;49.500;7.764;2023-02-23T10:33:34;25.10;;;15.63;;
7432;SDS011;32233;49.500;7.764;2023-02-23T10:36:17;31.80;;;17.27;;
7432;SDS011;32233;49.500;7.764;2023-02-23T10:38:45;30.40;;;17.40;;
7432;SDS011;32233;49.500;7.764;2023-02-23T10:41:12;29.80;;;17.50;;
7432;SDS011;32233;49.500;7.764;2023-02-23T10:43:41;27.30;;;16.47;;
7432;SDS011;32233;49.500;7.764;2023-02-23T10:46:10;25.67;;;16.50;;
7432;SDS011;32233;49.500;7.764;2023-02-23T10:48:44;31.83;;;18.70;;
7432;SDS011;32233;49.500;7.764;2023-02-23T10:51:21;32.87;;;18.33;;
7432;SDS011;32233;49.500;7.764;2023-02-23T10:53:51;32.03;;;19.23;;
7432;SDS011;32233;49.500;7.764;2023-02-23T10:56:19;32.20;;;19.10;;
7432;SDS011;32233;49.500;7.764;2023-02-23T10:58:48;35.47;;;19.13;;
7432;SDS011;32233;49.500;7.764;2023-02-23T11:01:36;33.60;;;19.53;;
7432;SDS011;32233;49.500;7.764;2023-02-23T11:04:30;29.17;;;16.77;;
7432;SDS011;32233;49.500;7.764;2023-02-23T11:07:16;30.63;;;17.33;;
7432;SDS011;32233;49.500;7.764;2023-02-23T11:09:48;29.20;;;17.20;;
7432;SDS011;32233;49.500;7.764;2023-02-23T11:12:21;28.83;;;16.30;;
7432;SDS011;32233;49.500;7.764;2023-02-23T11:14:51;30.13;;;16.20;;
7432;SDS011;32233;49.500;7.764;2023-02-23T11:17:22;27.67;;;15.57;;
7432;SDS011;32233;49.500;7.764;2023-02-23T11:20:05;25.70;;;15.00;;
7432;SDS011;32233;49.500;7.764;2023-02-23T11:22:44;28.20;;;15.77;;
7432;SDS011;32233;49.500;7.764;2023-02-23T11:25:16;33.10;;;17.97;;
7432;SDS011;32233;49.500;7.764;2023-02-23T11:27:50;30.57;;;17.33;;
7432;SDS011;32233;49.500;7.764;2023-02-23T11:30:19;30.83;;;17.83;;
7432;SDS011;32233;49.500;7.764;2023-02-23T11:32:57;28.83;;;16.33;;
7432;SDS011;32233;49.500;7.764;2023-02-23T11:35:34;26.93;;;14.80;;
7432;SDS011;32233;49.500;7.764;2023-02-23T11:38:13;23.40;;;13.53;;
7432;SDS011;32233;49.500;7.764;2023-02-23T11:41:05;20.67;;;13.13;;
7432;SDS011;32233;49.500;7.764;2023-02-23T11:43:47;21.73;;;12.73;;
7432;SDS011;32233;49.500;7.764;2023-02-23T11:46:15;19.87;;;12.23;;
7432;SDS011;32233;49.500;7.764;2023-02-23T11:48:51;18.50;;;12.33;;
7432;SDS011;32233;49.500;7.764;2023-02-23T11:51:26;21.33;;;12.60;;
7432;SDS011;32233;49.500;7.764;2023-02-23T11:53:56;19.87;;;12.63;;
7432;SDS011;32233;49.500;7.764;2023-02-23T11:56:24;19.83;;;12.53;;
7432;SDS011;32233;49.500;7.764;2023-02-23T11:58:53;17.73;;;11.67;;
7432;SDS011;32233;49.500;7.764;2023-02-23T12:01:42;17.20;;;11.23;;
7432;SDS011;32233;49.500;7.764;2023-02-23T12:04:22;16.63;;;11.27;;
7432;SDS011;32233;49.500;7.764;2023-02-23T12:09:56;21.03;;;12.17;;
7432;SDS011;32233;49.500;7.764;2023-02-23T12:12:28;21.93;;;12.67;;
7432;SDS011;32233;49.500;7.764;2023-02-23T12:15:05;21.80;;;13.33;;
7432;SDS011;32233;49.500;7.764;2023-02-23T12:17:46;20.33;;;12.57;;
7432;SDS011;32233;49.500;7.764;2023-02-23T12:20:26;20.07;;;12.30;;
7432;SDS011;32233;49.500;7.764;2023-02-23T12:23:08;19.20;;;12.27;;
7432;SDS011;32233;49.500;7.764;2023-02-23T12:25:39;18.90;;;11.53;;
7432;SDS011;32233;49.500;7.764;2023-02-23T12:28:19;19.53;;;12.13;;
7432;SDS011;32233;49.500;7.764;2023-02-23T12:30:57;21.67;;;12.27;;
7432;SDS011;32233;49.500;7.764;2023-02-23T12:33:33;21.93;;;12.73;;
7432;SDS011;32233;49.500;7.764;2023-02-23T12:36:18;22.33;;;12.37;;
7432;SDS011;32233;49.500;7.764;2023-02-23T12:38:58;18.60;;;11.67;;
7432;SDS011;32233;49.500;7.764;2023-02-23T12:41:38;19.57;;;11.63;;
7432;SDS011;32233;49.500;7.764;2023-02-23T12:44:13;18.53;;;11.77;;
7432;SDS011;32233;49.500;7.764;2023-02-23T12:46:54;18.03;;;11.83;;
7432;SDS011;32233;49.500;7.764;2023-02-23T12:49:29;17.03;;;10.47;;
7432;SDS011;32233;49.500;7.764;2023-02-23T12:54:39;16.97;;;9.47;;
7432;SDS011;32233;49.500;7.764;2023-02-23T13:02:38;12.87;;;9.17;;
7432;SDS011;32233;49.500;7.764;2023-02-23T13:05:26;14.93;;;9.43;;
7432;SDS011;32233;49.500;7.764;2023-02-23T13:16:09;15.70;;;9.07;;
7432;SDS011;32233;49.500;7.764;2023-02-23T13:18:48;12.97;;;8.13;;
7432;SDS011;32233;49.500;7.764;2023-02-23T13:21:36;11.67;;;8.00;;
7432;SDS011;32233;49.500;7.764;2023-02-23T13:24:30;13.03;;;8.67;;
7432;SDS011;32233;49.500;7.764;2023-02-23T13:27:15;13.67;;;9.07;;
7432;SDS011;32233;49.500;7.764;2023-02-23T13:29:49;16.37;;;9.03;;
7432;SDS011;32233;49.500;7.764;2023-02-23T13:32:21;14.30;;;8.50;;
7432;SDS011;32233;49.500;7.764;2023-02-23T13:34:58;15.63;;;8.23;;
7432;SDS011;32233;49.500;7.764;2023-02-23T13:40:15;13.30;;;8.47;;
7432;SDS011;32233;49.500;7.764;2023-02-23T13:42:58;11.47;;;7.60;;
7432;SDS011;32233;49.500;7.764;2023-02-23T13:45:50;11.20;;;7.33;;
7432;SDS011;32233;49.500;7.764;2023-02-23T13:54:04;13.50;;;7.60;;
7432;SDS011;32233;49.500;7.764;2023-02-23T13:56:53;13.33;;;7.80;;
7432;SDS011;32233;49.500;7.764;2023-02-23T13:59:22;10.07;;;7.27;;
7432;SDS011;32233;49.500;7.764;2023-02-23T14:01:59;11.27;;;7.57;;
7432;SDS011;32233;49.500;7.764;2023-02-23T14:04:35;12.53;;;8.23;;
7432;SDS011;32233;49.500;7.764;2023-02-23T14:09:35;12.30;;;8.00;;
7432;SDS011;32233;49.500;7.764;2023-02-23T14:23:30;12.97;;;8.10;;
7432;SDS011;32233;49.500;7.764;2023-02-23T14:32:00;11.50;;;7.73;;
7432;SDS011;32233;49.500;7.764;2023-02-23T14:34:55;13.97;;;8.40;;
7432;SDS011;32233;49.500;7.764;2023-02-23T14:40:13;13.03;;;8.37;;
7432;SDS011;32233;49.500;7.764;2023-02-23T14:42:49;12.20;;;7.47;;
7432;SDS011;32233;49.500;7.764;2023-02-23T14:45:21;11.37;;;8.00;;
7432;SDS011;32233;49.500;7.764;2023-02-23T14:47:57;14.60;;;8.33;;
7432;SDS011;32233;49.500;7.764;2023-02-23T14:50:32;10.90;;;7.57;;
7432;SDS011;32233;49.500;7.764;2023-02-23T14:53:01;12.37;;;7.83;;
7432;SDS011;32233;49.500;7.764;2023-02-23T14:55:30;11.80;;;7.43;;
7432;SDS011;32233;49.500;7.764;2023-02-23T14:58:02;10.20;;;7.83;;
7432;SDS011;32233;49.500;7.764;2023-02-23T15:00:30;13.77;;;7.90;;
7432;SDS011;32233;49.500;7.764;2023-02-23T15:03:03;12.70;;;8.33;;
7432;SDS011;32233;49.500;7.764;2023-02-23T15:05:32;14.40;;;8.50;;
7432;SDS011;32233;49.500;7.764;2023-02-23T15:08:03;10.37;;;7.60;;
7432;SDS011;32233;49.500;7.764;2023-02-23T15:13:25;13.83;;;8.07;;
7432;SDS011;32233;49.500;7.764;2023-02-23T15:15:55;11.67;;;7.63;;
7432;SDS011;32233;49.500;7.764;2023-02-23T15:21:55;10.27;;;6.97;;
7432;SDS011;32233;49.500;7.764;2023-02-23T15:24:27;11.60;;;7.60;;
7432;SDS011;32233;49.500;7.764;2023-02-23T15:26:58;11.67;;;7.97;;
7432;SDS011;32233;49.500;7.764;2023-02-23T15:29:29;12.57;;;7.90;;
7432;SDS011;32233;49.500;7.764;2023-02-23T15:32:09;8.93;;;6.70;;
7432;SDS011;32233;49.500;7.764;2023-02-23T15:34:40;11.50;;;6.57;;
7432;SDS011;32233;49.500;7.764;2023-02-23T15:37:11;7.43;;;5.80;;
7432;SDS011;32233;49.500;7.764;2023-02-23T15:39:47;9.90;;;6.10;;
7432;SDS011;32233;49.500;7.764;2023-02-23T15:42:21;10.63;;;6.00;;
7432;SDS011;32233;49.500;7.764;2023-02-23T15:44:57;9.43;;;6.20;;
7432;SDS011;32233;49.500;7.764;2023-02-23T15:47:33;7.63;;;5.87;;
7432;SDS011;32233;49.500;7.764;2023-02-23T15:50:24;9.03;;;5.90;;
7432;SDS011;32233;49.500;7.764;2023-02-23T15:53:04;8.77;;;6.80;;
7432;SDS011;32233;49.500;7.764;2023-02-23T15:55:40;10.70;;;6.90;;
7432;SDS011;32233;49.500;7.764;2023-02-23T15:58:25;8.07;;;6.50;;
7432;SDS011;32233;49.500;7.764;2023-02-23T16:01:00;8.40;;;6.13;;
7432;SDS011;32233;49.500;7.764;2023-02-23T16:03:35;9.53;;;6.40;;
7432;SDS011;32233;49.500;7.764;2023-02-23T16:06:04;7.27;;;5.90;;
7432;SDS011;32233;49.500;7.764;2023-02-23T16:08:33;8.17;;;6.10;;
7432;SDS011;32233;49.500;7.764;2023-02-23T16:13:42;8.03;;;5.50;;
7432;SDS011;32233;49.500;7.764;2023-02-23T16:16:11;7.70;;;6.07;;
7432;SDS011;32233;49.500;7.764;2023-02-23T16:18:45;5.97;;;5.17;;
7432;SDS011;32233;49.500;7.764;2023-02-23T16:21:19;6.60;;;5.07;;
7432;SDS011;32233;49.500;7.764;2023-02-23T16:23:50;6.47;;;5.47;;
7432;SDS011;32233;49.500;7.764;2023-02-23T16:26:21;6.40;;;5.30;;
7432;SDS011;32233;49.500;7.764;2023-02-23T16:28:53;8.17;;;5.53;;
7432;SDS011;32233;49.500;7.764;2023-02-23T16:31:23;6.37;;;5.23;;
7432;SDS011;32233;49.500;7.764;2023-02-23T16:34:24;7.13;;;5.07;;
7432;SDS011;32233;49.500;7.764;2023-02-23T16:36:54;8.03;;;5.23;;
7432;SDS011;32233;49.500;7.764;2023-02-23T16:39:29;6.07;;;5.20;;
7432;SDS011;32233;49.500;7.764;2023-02-23T16:41:59;8.63;;;5.40;;
7432;SDS011;32233;49.500;7.764;2023-02-23T16:44:27;8.20;;;5.87;;
7432;SDS011;32233;49.500;7.764;2023-02-23T16:49:34;8.43;;;5.33;;
7432;SDS011;32233;49.500;7.764;2023-02-23T16:52:00;7.67;;;5.20;;
7432;SDS011;32233;49.500;7.764;2023-02-23T16:54:37;8.37;;;5.43;;
7432;SDS011;32233;49.500;7.764;2023-02-23T16:57:05;10.00;;;5.77;;
7432;SDS011;32233;49.500;7.764;2023-02-23T16:59:43;9.40;;;5.10;;
7432;SDS011;32233;49.500;7.764;2023-02-23T17:02:10;6.80;;;5.13;;
7432;SDS011;32233;49.500;7.764;2023-02-23T17:04:38;5.93;;;4.43;;
7432;SDS011;32233;49.500;7.764;2023-02-23T17:07:11;6.83;;;4.93;;